Artas, South Dakota
Current Conditions -  °F | °C
As of 8:08 PM on Sunday 21 Dec 2014 (Local Time) from KMBG Reporting Station
Haze Haze  
Wind Chill: 22°   Ceiling: 200
Heat Index: 30°   Visibility: 0.75mi
Dew Point: 29°   Wind: 8mph
Humidity: 96%   Direction: 110°ESE
Pressure: 29.42"   Gusts: NA
Location:  45.7737°N, 99.5895°W
Report Text: KMBG 220208Z AUTO 11007KT 3/4SM BR OVC002 M01/M02 A2942 RMK AO2 T10111017
Loading
Personal Weather Stations






























Interactive Weather Map New forecast layout! Learn more

10-Day Weather Forecast

Advertisements
Track Severe Weather on mobile